Elida V — SEMW — position and weather

sailwx.info

Track history (hours):
 
Tides and Currents Weather Stations Pressure Air Temp Water Temp Dewpoint Dewpoint Depression Visibility Wind Speed Wind Dir Waves Ship Positions

Elida V

Last reported at 2018-Feb-24 09:59 UTC. Time now 2018-Feb-24 10:28 UTC.
Position N 28°08' W 015°26'.

Length 40 m; draft 4 m.

Type: Sailing vessel. MMSI: 266263000.

Date/timePositionNaut miles runAvg speedWind from/ knotsBaromVisibWave heightAir tempDewpointWater temp
2018-Feb-24 09:59N 28°08' W 015°26'0 0.0
2018-Feb-24 09:29N 28°08' W 015°26'0 0.0
2018-Feb-24 08:59N 28°08' W 015°26'0 0.0
2018-Feb-24 08:29N 28°08' W 015°26'0 0.0
2018-Feb-24 07:59N 28°08' W 015°26'0 0.0
2018-Feb-24 07:29N 28°08' W 015°26'0 0.0
2018-Feb-24 06:59N 28°08' W 015°26'0 0.0
2018-Feb-24 06:29N 28°08' W 015°26'0 0.0
2018-Feb-24 05:50N 28°08' W 015°26'0 0.0
2018-Feb-24 05:20N 28°08' W 015°26'0 0.0
2018-Feb-24 04:50N 28°08' W 015°26'0 0.0
2018-Feb-24 04:23N 28°08' W 015°26'0 0.0
2018-Feb-24 03:53N 28°08' W 015°26'0 0.0
2018-Feb-24 03:23N 28°08' W 015°26'0 0.0
2018-Feb-24 02:53N 28°08' W 015°26'0 0.0
2018-Feb-24 02:23N 28°08' W 015°26'0 0.0
2018-Feb-24 01:53N 28°08' W 015°26'0 0.0
2018-Feb-24 01:26N 28°08' W 015°26'0 0.0
2018-Feb-24 00:56N 28°08' W 015°26'0 0.0
2018-Feb-24 00:26N 28°08' W 015°26'0 0.0
2018-Feb-23 23:56N 28°08' W 015°26'0 0.0
2018-Feb-23 23:26N 28°08' W 015°26'0 0.0
2018-Feb-23 23:00N 28°08' W 015°26'0 0.0
2018-Feb-23 22:30N 28°08' W 015°26'0 0.0
2018-Feb-23 22:00N 28°08' W 015°26'0 0.0
2018-Feb-23 21:30N 28°08' W 015°26'0 0.0
2018-Feb-23 21:00N 28°08' W 015°26'0 0.0
2018-Feb-23 20:30N 28°08' W 015°26'0 0.0
2018-Feb-23 20:00N 28°08' W 015°26'0 0.0
2018-Feb-23 19:30N 28°08' W 015°26'0 0.0
2018-Feb-23 19:00N 28°08' W 015°26'0 0.0
2018-Feb-23 18:30N 28°08' W 015°26'0 0.0
2018-Feb-23 18:00N 28°08' W 015°26'0 0.0
2018-Feb-23 17:29N 28°08' W 015°26'0 0.0
2018-Feb-23 17:00N 28°08' W 015°26'0 0.0
2018-Feb-23 16:30N 28°08' W 015°26'0 0.0
2018-Feb-23 16:00N 28°08' W 015°26'0 0.0
2018-Feb-23 15:30N 28°08' W 015°26'0 0.0
2018-Feb-23 15:00N 28°08' W 015°26'0 0.0
2018-Feb-23 14:30N 28°08' W 015°26'0 0.0
2018-Feb-23 14:00N 28°08' W 015°26'0 0.0
2018-Feb-23 13:30N 28°08' W 015°26'0 0.0
2018-Feb-23 13:00N 28°08' W 015°26'0 0.0
2018-Feb-23 12:30N 28°08' W 015°26'0 0.0
2018-Feb-23 12:00N 28°08' W 015°26'0 0.0
2018-Feb-23 11:30N 28°08' W 015°26'0 0.0
2018-Feb-23 11:00N 28°08' W 015°26'0 0.0
2018-Feb-23 10:30N 28°08' W 015°26'0 0.3
2018-Feb-23 10:00N 28°08' W 015°25'0 0.5
2018-Feb-23 09:30N 28°08' W 015°25'0 0.0
2018-Feb-23 08:57N 28°08' W 015°25'0 0.0
2018-Feb-23 08:30N 28°08' W 015°25'0 0.0
2018-Feb-23 08:00N 28°08' W 015°25'0 0.0
2018-Feb-23 07:18N 28°08' W 015°25'0 0.1
2018-Feb-23 07:00N 28°08' W 015°25'0 0.0
2018-Feb-23 06:30N 28°08' W 015°25'0 0.0
2018-Feb-23 06:00N 28°08' W 015°25'0 0.0
2018-Feb-23 05:30N 28°08' W 015°25'0 0.1
2018-Feb-23 04:51N 28°08' W 015°25'0 0.0
2018-Feb-23 04:21N 28°08' W 015°25'0 0.0
2018-Feb-23 03:51N 28°08' W 015°25'0 0.1
2018-Feb-23 03:24N 28°08' W 015°25'0 0.0
2018-Feb-23 02:54N 28°08' W 015°25'0 0.1
2018-Feb-23 02:24N 28°08' W 015°25'0 0.1
2018-Feb-23 01:54N 28°08' W 015°25'0 0.0
2018-Feb-23 01:24N 28°08' W 015°25'0 0.0
2018-Feb-23 00:54N 28°08' W 015°25'0 0.1
2018-Feb-23 00:30N 28°08' W 015°25'2 3.6
2018-Feb-23 00:00N 28°09' W 015°24'3 6.2
2018-Feb-22 23:29N 28°11' W 015°26'4 8.1
2018-Feb-22 23:00N 28°11' W 015°31'4 8.3
2018-Feb-22 22:30N 28°11' W 015°36'4 7.3
2018-Feb-22 22:00N 28°11' W 015°40'  
2018-Feb-16 16:29N 27°51' W 015°58'3 6.1
2018-Feb-16 16:00N 27°52' W 016°02'1 2.6
2018-Feb-16 15:27N 27°53' W 016°03'19 5.5
2018-Feb-16 12:02N 27°58' W 016°24'0 2.4
2018-Feb-16 12:00N 27°58' W 016°24'  
Track history (hours):
 
Tides and Currents Weather Stations Pressure Air Temp Water Temp Dewpoint Dewpoint Depression Visibility Wind Speed Wind Dir Waves Ship Positions

Elida V

Last reported at 2018-Feb-24 09:59 UTC. Time now 2018-Feb-24 10:28 UTC.
Position N 28°08' W 015°26'.

Length 40 m; draft 4 m.

Type: Sailing vessel. MMSI: 266263000.

Date/timePositionNaut miles runAvg speedWind from/ knotsBaromVisibWave heightAir tempDewpointWater temp
2018-Feb-24 09:59N 28°08' W 015°26'0 0.0
2018-Feb-24 09:29N 28°08' W 015°26'0 0.0
2018-Feb-24 08:59N 28°08' W 015°26'0 0.0
2018-Feb-24 08:29N 28°08' W 015°26'0 0.0
2018-Feb-24 07:59N 28°08' W 015°26'0 0.0
2018-Feb-24 07:29N 28°08' W 015°26'0 0.0
2018-Feb-24 06:59N 28°08' W 015°26'0 0.0
2018-Feb-24 06:29N 28°08' W 015°26'0 0.0
2018-Feb-24 05:50N 28°08' W 015°26'0 0.0
2018-Feb-24 05:20N 28°08' W 015°26'0 0.0
2018-Feb-24 04:50N 28°08' W 015°26'0 0.0
2018-Feb-24 04:23N 28°08' W 015°26'0 0.0
2018-Feb-24 03:53N 28°08' W 015°26'0 0.0
2018-Feb-24 03:23N 28°08' W 015°26'0 0.0
2018-Feb-24 02:53N 28°08' W 015°26'0 0.0
2018-Feb-24 02:23N 28°08' W 015°26'0 0.0
2018-Feb-24 01:53N 28°08' W 015°26'0 0.0
2018-Feb-24 01:26N 28°08' W 015°26'0 0.0
2018-Feb-24 00:56N 28°08' W 015°26'0 0.0
2018-Feb-24 00:26N 28°08' W 015°26'0 0.0
2018-Feb-23 23:56N 28°08' W 015°26'0 0.0
2018-Feb-23 23:26N 28°08' W 015°26'0 0.0
2018-Feb-23 23:00N 28°08' W 015°26'0 0.0
2018-Feb-23 22:30N 28°08' W 015°26'0 0.0
2018-Feb-23 22:00N 28°08' W 015°26'0 0.0
2018-Feb-23 21:30N 28°08' W 015°26'0 0.0
2018-Feb-23 21:00N 28°08' W 015°26'0 0.0
2018-Feb-23 20:30N 28°08' W 015°26'0 0.0
2018-Feb-23 20:00N 28°08' W 015°26'0 0.0
2018-Feb-23 19:30N 28°08' W 015°26'0 0.0
2018-Feb-23 19:00N 28°08' W 015°26'0 0.0
2018-Feb-23 18:30N 28°08' W 015°26'0 0.0
2018-Feb-23 18:00N 28°08' W 015°26'0 0.0
2018-Feb-23 17:29N 28°08' W 015°26'0 0.0
2018-Feb-23 17:00N 28°08' W 015°26'0 0.0
2018-Feb-23 16:30N 28°08' W 015°26'0 0.0
2018-Feb-23 16:00N 28°08' W 015°26'0 0.0
2018-Feb-23 15:30N 28°08' W 015°26'0 0.0
2018-Feb-23 15:00N 28°08' W 015°26'0 0.0
2018-Feb-23 14:30N 28°08' W 015°26'0 0.0
2018-Feb-23 14:00N 28°08' W 015°26'0 0.0
2018-Feb-23 13:30N 28°08' W 015°26'0 0.0
2018-Feb-23 13:00N 28°08' W 015°26'0 0.0
2018-Feb-23 12:30N 28°08' W 015°26'0 0.0
2018-Feb-23 12:00N 28°08' W 015°26'0 0.0
2018-Feb-23 11:30N 28°08' W 015°26'0 0.0
2018-Feb-23 11:00N 28°08' W 015°26'0 0.0
2018-Feb-23 10:30N 28°08' W 015°26'0 0.3
2018-Feb-23 10:00N 28°08' W 015°25'0 0.5
2018-Feb-23 09:30N 28°08' W 015°25'0 0.0
2018-Feb-23 08:57N 28°08' W 015°25'0 0.0
2018-Feb-23 08:30N 28°08' W 015°25'0 0.0
2018-Feb-23 08:00N 28°08' W 015°25'0 0.0
2018-Feb-23 07:18N 28°08' W 015°25'0 0.1
2018-Feb-23 07:00N 28°08' W 015°25'0 0.0
2018-Feb-23 06:30N 28°08' W 015°25'0 0.0
2018-Feb-23 06:00N 28°08' W 015°25'0 0.0
2018-Feb-23 05:30N 28°08' W 015°25'0 0.1
2018-Feb-23 04:51N 28°08' W 015°25'0 0.0
2018-Feb-23 04:21N 28°08' W 015°25'0 0.0
2018-Feb-23 03:51N 28°08' W 015°25'0 0.1
2018-Feb-23 03:24N 28°08' W 015°25'0 0.0
2018-Feb-23 02:54N 28°08' W 015°25'0 0.1
2018-Feb-23 02:24N 28°08' W 015°25'0 0.1
2018-Feb-23 01:54N 28°08' W 015°25'0 0.0
2018-Feb-23 01:24N 28°08' W 015°25'0 0.0
2018-Feb-23 00:54N 28°08' W 015°25'0 0.1
2018-Feb-23 00:30N 28°08' W 015°25'2 3.6
2018-Feb-23 00:00N 28°09' W 015°24'3 6.2
2018-Feb-22 23:29N 28°11' W 015°26'4 8.1
2018-Feb-22 23:00N 28°11' W 015°31'4 8.3
2018-Feb-22 22:30N 28°11' W 015°36'4 7.3
2018-Feb-22 22:00N 28°11' W 015°40'  
2018-Feb-16 16:29N 27°51' W 015°58'3 6.1
2018-Feb-16 16:00N 27°52' W 016°02'1 2.6
2018-Feb-16 15:27N 27°53' W 016°03'19 5.5
2018-Feb-16 12:02N 27°58' W 016°24'0 2.4
2018-Feb-16 12:00N 27°58' W 016°24'  

Dump ship's entire track history